Darstellungsparameter: Aktuell verwendete Einstellungen:
Skalierung der Graphiken ... ?
xyx+y,   Skalierungsfaktor:      Skalierung: Modus: x, Faktor: 1
Darstellungszeitraum ... ?
Vom - - bis: - -   Zeitraum: 17.11.2021 - 30.11.2021
Min/Max/Avg-Anzeige ... ?
Zeige MMA aktuell
Zeige MMA Monat
Zeige MMA alles
Zeige --A aktuell
Zeige --A Monat
Zeige --A alles
Keine MMA-Anzeige
MMA:
Average (ber die Originaldaten)
MMA-Basis: 17.11.2021 - 30.11.2021
Quicknavigation für Darstellung... ?
Tage:      1T, 2T, 3T, 5T -1T -2T -3T -5T +1T +2T +3T +5T
Wochen: 1W, 2W, 3W -1W -2W -3W +1W +2W +3W
Monate: 1M, 3M, 6M -1M -3M -6M +1M +3M +6M
Jahre:    1J, 3J, 5J, 10J -1J -3J -5J -10J +1J +3J +5J +10J
Nutze für die Darstellung ... ?
Originaldaten oder ...
Mittelwerte Minima Maxima auf...
Stundenbasis Tagesbasis Wochenbasis
Monatsbasis Jahresbasis      Datenbasis: Mittelwerte auf Stundenbasis
Darstellen als:
Statistik (Auto) Statistik J:M      Darstellung:
Zur Graphik,    zurück zur Übersicht aller Sensoren.
 
Tabellarische Datenbersicht: ?
 
Sensor: Nr:Datum:Temp:Abs-Feuchte:Windchill:Wind:
Aussen-T/F 1 17-11-2021 00:00:00 5.4 C 6.7 g/m*3 5.4 C 0 km/h
2 17-11-2021 01:00:00 5.4 C 6.7 g/m*3 5.4 C 0 km/h
3 17-11-2021 02:00:00 5.38333 C 6.72 g/m*3 5.38 C 0.4 km/h
4 17-11-2021 03:00:00 5.26667 C 6.64 g/m*3 5.27 C 0.53333 km/h
5 17-11-2021 04:00:00 4.925 C 6.49 g/m*3 4.93 C 2.26667 km/h
6 17-11-2021 05:00:00 4.8 C 6.44 g/m*3 4.8 C 2.8 km/h
7 17-11-2021 06:00:00 4.81667 C 6.44 g/m*3 4.82 C 4.00833 km/h
8 17-11-2021 07:00:00 4.9 C 6.48 g/m*3 4.9 C 2.13333 km/h
9 17-11-2021 08:00:00 5.09167 C 6.53 g/m*3 5.09 C 4.26667 km/h
10 17-11-2021 09:00:00 5.6 C 6.72 g/m*3 5.6 C 3.06667 km/h
11 17-11-2021 10:00:00 6.44167 C 7 g/m*3 5.25 C 6.44167 km/h
12 17-11-2021 11:00:00 7.29167 C 7.21 g/m*3 5.87 C 7.8 km/h
13 17-11-2021 12:00:00 7.85833 C 7.3 g/m*3 6.24 C 9.15833 km/h
14 17-11-2021 13:00:00 7.875 C 7.38 g/m*3 6.63 C 7.51667 km/h
15 17-11-2021 14:00:00 7.59167 C 7.47 g/m*3 7.59 C 3.61667 km/h
16 17-11-2021 15:00:00 7.65 C 7.5 g/m*3 5.81 C 10.09167 km/h
17 17-11-2021 16:00:00 8.04167 C 7.63 g/m*3 6.15 C 10.75833 km/h
18 17-11-2021 17:00:00 7.88333 C 7.6 g/m*3 5.89 C 11.16667 km/h
19 17-11-2021 18:00:00 8.00833 C 7.71 g/m*3 6 C 11.43333 km/h
20 17-11-2021 19:00:00 7.96667 C 7.73 g/m*3 6.26 C 9.69167 km/h
21 17-11-2021 20:00:00 7.50833 C 7.51 g/m*3 6.52 C 6.30833 km/h
22 17-11-2021 21:00:00 6.69167 C 7.16 g/m*3 5.97 C 5.08333 km/h
23 17-11-2021 22:00:00 6.025 C 6.91 g/m*3 6.03 C 3.74167 km/h
24 17-11-2021 23:00:00 5.20833 C 6.55 g/m*3 5.21 C 2.93333 km/h
25 18-11-2021 00:00:00 5.04167 C 6.54 g/m*3 5.04 C 2.93333 km/h
Sensor: Nr:Datum:Temp:Abs-Feuchte:Windchill:Wind:
Aussen-T/F 26 18-11-2021 01:00:00 5.4 C 6.73 g/m*3 5.4 C 3.46667 km/h
27 18-11-2021 02:00:00 5.30833 C 6.68 g/m*3 5.31 C 3.86667 km/h
28 18-11-2021 03:00:00 5.39167 C 6.75 g/m*3 5.39 C 4.40833 km/h
29 18-11-2021 04:00:00 4.9 C 6.5 g/m*3 4.9 C 3.875 km/h
30 18-11-2021 05:00:00 4.95 C 6.54 g/m*3 4.95 C 4.275 km/h
31 18-11-2021 06:00:00 3.99167 C 6.11 g/m*3 3.99 C 1.33333 km/h
32 18-11-2021 07:00:00 2.98333 C 5.7 g/m*3 2.98 C 0 km/h
33 18-11-2021 08:00:00 2.975 C 5.74 g/m*3 2.98 C 0.26667 km/h
34 18-11-2021 09:00:00 4.55 C 6.42 g/m*3 4.55 C 0.66667 km/h
35 18-11-2021 10:00:00 6.15 C 7.16 g/m*3 6.15 C 0.66667 km/h
36 18-11-2021 11:00:00 7.03333 C 7.54 g/m*3 7.03 C 3.88333 km/h
37 18-11-2021 12:00:00 7.71667 C 7.68 g/m*3 6.37 C 7.8 km/h
38 18-11-2021 13:00:00 8.23333 C 7.57 g/m*3 6.83 C 8.475 km/h
39 18-11-2021 14:00:00 8.65 C 7.6 g/m*3 7.38 C 8.2 km/h
40 18-11-2021 15:00:00 8.33333 C 7.5 g/m*3 7.71 C 5.49167 km/h
41 18-11-2021 16:00:00 7.49167 C 7.22 g/m*3 6.35 C 6.825 km/h
42 18-11-2021 17:00:00 6.48333 C 6.91 g/m*3 5.6 C 5.48333 km/h
43 18-11-2021 18:00:00 6.06667 C 6.79 g/m*3 6.07 C 3.2 km/h
44 18-11-2021 19:00:00 6.29167 C 7.01 g/m*3 5.03 C 6.575 km/h
45 18-11-2021 20:00:00 5.88333 C 6.78 g/m*3 5.88 C 0.13333 km/h
46 18-11-2021 21:00:00 6 C 6.95 g/m*3 6 C 0.8 km/h
47 18-11-2021 22:00:00 6.575 C 7.24 g/m*3 6.58 C 1.33333 km/h
48 18-11-2021 23:00:00 7.4 C 7.55 g/m*3 6.47 C 6.03333 km/h
49 19-11-2021 00:00:00 7.76667 C 7.59 g/m*3 7.77 C 4.40833 km/h
50 19-11-2021 01:00:00 7.83333 C 7.54 g/m*3 6.93 C 6.15833 km/h
Sensor: Nr:Datum:Temp:Abs-Feuchte:Windchill:Wind:
Aussen-T/F 51 19-11-2021 02:00:00 7.45833 C 7.43 g/m*3 7.46 C 4.29167 km/h
52 19-11-2021 03:00:00 7.65 C 7.58 g/m*3 6.29 C 7.80833 km/h
53 19-11-2021 04:00:00 8.06667 C 7.72 g/m*3 6.6 C 8.60833 km/h
54 19-11-2021 05:00:00 8.19167 C 7.78 g/m*3 6.72 C 8.76667 km/h
55 19-11-2021 06:00:00 8.2 C 7.79 g/m*3 6.84 C 8.21667 km/h
56 19-11-2021 07:00:00 8.2 C 7.86 g/m*3 6.64 C 9.16667 km/h
57 19-11-2021 08:00:00 8.23333 C 7.95 g/m*3 6.86 C 8.33333 km/h
58 19-11-2021 09:00:00 8.41667 C 8.1 g/m*3 6.7 C 10.23333 km/h
59 19-11-2021 10:00:00 8.93333 C 8.36 g/m*3 7.13 C 11.3 km/h
60 19-11-2021 11:00:00 9.68333 C 8.57 g/m*3 7.8 C 12.9 km/h
61 19-11-2021 12:00:00 10.21667 C 8.7 g/m*3 8.45 C 12.9 km/h
62 19-11-2021 13:00:00 10.65833 C 8.78 g/m*3 8.95 C 13.16667 km/h
63 19-11-2021 14:00:00 10.58333 C 8.74 g/m*3 9.16 C 11.03333 km/h
64 19-11-2021 15:00:00 10.225 C 8.73 g/m*3 8.91 C 9.95833 km/h
65 19-11-2021 16:00:00 10.3 C 8.71 g/m*3 9.43 C 7.66667 km/h
66 19-11-2021 17:00:00 10.16667 C 8.68 g/m*3 9.59 C 6.28333 km/h
67 19-11-2021 18:00:00 9.96667 C 8.65 g/m*3 9.97 C 4.14167 km/h
68 19-11-2021 19:00:00 10.01667 C 8.69 g/m*3 9.42 C 6.28333 km/h
69 19-11-2021 20:00:00 10.01667 C 8.65 g/m*3 10.02 C 4.66667 km/h
70 19-11-2021 21:00:00 9.95 C 8.63 g/m*3 9.95 C 2.8 km/h
71 19-11-2021 22:00:00 9.8 C 8.62 g/m*3 9.8 C 2.54167 km/h
72 19-11-2021 23:00:00 9.71667 C 8.58 g/m*3 9.72 C 1.2 km/h
73 20-11-2021 00:00:00 9.65 C 8.55 g/m*3 9.65 C 1.875 km/h
74 20-11-2021 01:00:00 9.68333 C 8.56 g/m*3 9.68 C 2.13333 km/h
75 20-11-2021 02:00:00 9.60833 C 8.52 g/m*3 9.61 C 1.6 km/h
Sensor: Nr:Datum:Temp:Abs-Feuchte:Windchill:Wind:
Aussen-T/F 76 20-11-2021 03:00:00 9.49167 C 8.46 g/m*3 9.49 C 2.53333 km/h
77 20-11-2021 04:00:00 9.375 C 8.4 g/m*3 9.38 C 2.13333 km/h
78 20-11-2021 05:00:00 9.25 C 8.34 g/m*3 9.25 C 1.2 km/h
79 20-11-2021 06:00:00 9.14167 C 8.36 g/m*3 9.14 C 1.73333 km/h
80 20-11-2021 07:00:00 9.1 C 8.34 g/m*3 9.1 C 2.93333 km/h
81 20-11-2021 08:00:00 9.1 C 8.34 g/m*3 9.1 C 2.26667 km/h
82 20-11-2021 09:00:00 9.31667 C 8.46 g/m*3 9.32 C 1.6 km/h
83 20-11-2021 10:00:00 9.73333 C 8.58 g/m*3 9.73 C 0.53333 km/h
84 20-11-2021 11:00:00 10.16667 C 8.5 g/m*3 10.17 C 2.13333 km/h
85 20-11-2021 12:00:00 10.66667 C 8.2 g/m*3 10.67 C 3.46667 km/h
86 20-11-2021 13:00:00 10.88333 C 8.11 g/m*3 10.88 C 4 km/h
87 20-11-2021 14:00:00 10.95 C 8.05 g/m*3 10.95 C 1.73333 km/h
88 20-11-2021 15:00:00 10.73333 C 8.09 g/m*3 10.73 C 0 km/h
89 20-11-2021 16:00:00 8.4 C 7.44 g/m*3 8.4 C 0.4 km/h
90 20-11-2021 17:00:00 6.40833 C 6.79 g/m*3 6.41 C 0.13333 km/h
91 20-11-2021 18:00:00 5.11667 C 6.37 g/m*3 5.12 C 0 km/h
92 20-11-2021 19:00:00 4.13333 C 6.03 g/m*3 4.13 C 0 km/h
93 20-11-2021 20:00:00 3.51667 C 5.83 g/m*3 3.52 C 0 km/h
94 20-11-2021 21:00:00 2.875 C 5.6 g/m*3 2.88 C 0 km/h
95 20-11-2021 22:00:00 3.00833 C 5.69 g/m*3 3.01 C 1.46667 km/h
96 20-11-2021 23:00:00 4.81667 C 6.51 g/m*3 4.82 C 3.06667 km/h
97 21-11-2021 00:00:00 5.88333 C 6.99 g/m*3 5.88 C 4.94167 km/h
98 21-11-2021 01:00:00 6.05833 C 7.07 g/m*3 6.06 C 2.53333 km/h
99 21-11-2021 02:00:00 6.1 C 7.08 g/m*3 6.1 C 3.86667 km/h
100 21-11-2021 03:00:00 6.11667 C 7.02 g/m*3 6.12 C 4.26667 km/h
Sensor: Nr:Datum:Temp:Abs-Feuchte:Windchill:Wind:
Aussen-T/F 101 21-11-2021 04:00:00 6.2 C 7.06 g/m*3 5.06 C 6.15 km/h
102 21-11-2021 05:00:00 6.31667 C 7.05 g/m*3 5.15 C 6.28333 km/h
103 21-11-2021 06:00:00 6.425 C 7.02 g/m*3 6.43 C 4.675 km/h
104 21-11-2021 07:00:00 6.5 C 7.06 g/m*3 5.44 C 6.03333 km/h
105 21-11-2021 08:00:00 6.56667 C 7.12 g/m*3 4.93 C 8.19167 km/h
106 21-11-2021 09:00:00 6.85 C 7.18 g/m*3 5.39 C 7.65 km/h
107 21-11-2021 10:00:00 7.55833 C 7.37 g/m*3 6.32 C 7.24167 km/h
108 21-11-2021 11:00:00 8.16667 C 7.47 g/m*3 6.75 C 8.48333 km/h
109 21-11-2021 12:00:00 8.125 C 7.5 g/m*3 6.98 C 7.25 km/h
110 21-11-2021 13:00:00 7.86667 C 7.64 g/m*3 7.27 C 5.20833 km/h
111 21-11-2021 14:00:00 7.775 C 7.72 g/m*3 7.78 C 4.13333 km/h
112 21-11-2021 15:00:00 7.55833 C 7.65 g/m*3 7.56 C 1.6 km/h
113 21-11-2021 16:00:00 7.54167 C 7.7 g/m*3 7.54 C 0 km/h
114 21-11-2021 17:00:00 7.28333 C 7.58 g/m*3 7.28 C 0 km/h
115 21-11-2021 18:00:00 7.20833 C 7.54 g/m*3 7.21 C 0 km/h
116 21-11-2021 19:00:00 7.075 C 7.47 g/m*3 7.08 C 0 km/h
117 21-11-2021 20:00:00 6.80833 C 7.35 g/m*3 6.81 C 0 km/h
118 21-11-2021 21:00:00 6.9 C 7.42 g/m*3 6.9 C 0 km/h
119 21-11-2021 22:00:00 6.76667 C 7.34 g/m*3 6.77 C 0 km/h
120 21-11-2021 23:00:00 6.475 C 7.24 g/m*3 6.48 C 1.60833 km/h
121 22-11-2021 00:00:00 6.34167 C 7.16 g/m*3 6.34 C 0.66667 km/h
122 22-11-2021 01:00:00 5.8 C 6.89 g/m*3 5.8 C 0.13333 km/h
123 22-11-2021 02:00:00 5.625 C 6.83 g/m*3 5.63 C 1.33333 km/h
124 22-11-2021 03:00:00 5.10833 C 6.58 g/m*3 5.11 C 0.13333 km/h
125 22-11-2021 04:00:00 4.025 C 6.11 g/m*3 4.03 C 0.53333 km/h
Sensor: Nr:Datum:Temp:Abs-Feuchte:Windchill:Wind:
Aussen-T/F 126 22-11-2021 05:00:00 4.36667 C 6.32 g/m*3 4.37 C 0.66667 km/h
127 22-11-2021 06:00:00 4.625 C 6.43 g/m*3 4.63 C 1.2 km/h
128 22-11-2021 07:00:00 4.65 C 6.42 g/m*3 4.65 C 0.8 km/h
129 22-11-2021 08:00:00 4.68333 C 6.41 g/m*3 4.68 C 0 km/h
130 22-11-2021 09:00:00 4.99167 C 6.58 g/m*3 4.99 C 0.8 km/h
131 22-11-2021 10:00:00 5.48333 C 6.72 g/m*3 5.48 C 2.93333 km/h
132 22-11-2021 11:00:00 6.24167 C 6.71 g/m*3 4.51 C 8.33333 km/h
133 22-11-2021 12:00:00 6.825 C 6.59 g/m*3 5.13 C 8.61667 km/h
134 22-11-2021 13:00:00 7.30833 C 6.42 g/m*3 5.38 C 10.20833 km/h
135 22-11-2021 14:00:00 7.15 C 6.32 g/m*3 6.4 C 5.36667 km/h
136 22-11-2021 15:00:00 7.01667 C 6.3 g/m*3 7.02 C 4.425 km/h
137 22-11-2021 16:00:00 5.98333 C 6.08 g/m*3 5.98 C 2.4 km/h
138 22-11-2021 17:00:00 3.73333 C 5.56 g/m*3 3.73 C 2 km/h
139 22-11-2021 18:00:00 2.48333 C 5.26 g/m*3 2.48 C 0.66667 km/h
140 22-11-2021 19:00:00 1.43333 C 4.94 g/m*3 1.43 C 0 km/h
141 22-11-2021 20:00:00 0.55833 C 4.72 g/m*3 0.56 C 0 km/h
142 22-11-2021 21:00:00 -0.075 C 4.53 g/m*3 -0.08 C 0 km/h
143 22-11-2021 22:00:00 -0.26667 C 4.51 g/m*3 -0.27 C 0 km/h
144 22-11-2021 23:00:00 -0.74167 C 4.37 g/m*3 -0.74 C 0 km/h
145 23-11-2021 00:00:00 -1.2 C 4.24 g/m*3 -1.2 C 0 km/h
146 23-11-2021 01:00:00 -1.46667 C 4.16 g/m*3 -1.47 C 0 km/h
147 23-11-2021 02:00:00 -1.725 C 4.08 g/m*3 -1.73 C 0 km/h
148 23-11-2021 03:00:00 -2.08333 C 3.98 g/m*3 -2.08 C 0 km/h
149 23-11-2021 04:00:00 -2.19167 C 3.98 g/m*3 -2.19 C 0 km/h
150 23-11-2021 05:00:00 -2.075 C 4.03 g/m*3 -2.08 C 0 km/h
Sensor: Nr:Datum:Temp:Abs-Feuchte:Windchill:Wind:
Aussen-T/F 151 23-11-2021 06:00:00 -1.525 C 4.18 g/m*3 -1.53 C 0 km/h
152 23-11-2021 07:00:00 -1.06667 C 4.32 g/m*3 -1.07 C 0 km/h
153 23-11-2021 08:00:00 -0.9 C 4.37 g/m*3 -0.9 C 0 km/h
154 23-11-2021 09:00:00 -1.01667 C 4.33 g/m*3 -1.02 C 0 km/h
155 23-11-2021 10:00:00 -0.8 C 4.43 g/m*3 -0.8 C 0 km/h
156 23-11-2021 11:00:00 -0.20833 C 4.63 g/m*3 -0.21 C 0 km/h
157 23-11-2021 12:00:00 0.68333 C 4.93 g/m*3 0.68 C 0 km/h
158 23-11-2021 13:00:00 1.50833 C 5.21 g/m*3 1.51 C 0 km/h
159 23-11-2021 14:00:00 2.225 C 5.47 g/m*3 2.23 C 0 km/h
160 23-11-2021 15:00:00 2.88333 C 5.64 g/m*3 2.88 C 0 km/h
161 23-11-2021 16:00:00 3.29167 C 5.76 g/m*3 3.29 C 0 km/h
162 23-11-2021 17:00:00 3.24167 C 5.74 g/m*3 3.24 C 0 km/h
163 23-11-2021 18:00:00 3.375 C 5.79 g/m*3 3.38 C 0 km/h
164 23-11-2021 19:00:00 3.63333 C 5.89 g/m*3 3.63 C 0 km/h
165 23-11-2021 20:00:00 3.825 C 6.02 g/m*3 3.83 C 0 km/h
166 23-11-2021 21:00:00 3.95833 C 6.03 g/m*3 3.96 C 0 km/h
167 23-11-2021 22:00:00 4.08333 C 6.11 g/m*3 4.08 C 0 km/h
168 23-11-2021 23:00:00 4.1 C 6.14 g/m*3 4.1 C 0 km/h
169 24-11-2021 00:00:00 4.1 C 6.14 g/m*3 4.1 C 0 km/h
170 24-11-2021 01:00:00 4.16667 C 6.17 g/m*3 4.17 C 0 km/h
171 24-11-2021 02:00:00 4.23333 C 6.2 g/m*3 4.23 C 0 km/h
172 24-11-2021 03:00:00 4.175 C 6.18 g/m*3 4.18 C 0 km/h
173 24-11-2021 04:00:00 3.91667 C 6.07 g/m*3 3.92 C 0 km/h
174 24-11-2021 05:00:00 3.95 C 6.08 g/m*3 3.95 C 0 km/h
175 24-11-2021 06:00:00 3.88333 C 6.06 g/m*3 3.88 C 0 km/h
Sensor: Nr:Datum:Temp:Abs-Feuchte:Windchill:Wind:
Aussen-T/F 176 24-11-2021 07:00:00 3.8 C 6.02 g/m*3 3.8 C 0 km/h
177 24-11-2021 08:00:00 3.73333 C 6 g/m*3 3.73 C 0 km/h
178 24-11-2021 09:00:00 3.96667 C 6.09 g/m*3 3.97 C 0 km/h
179 24-11-2021 10:00:00 4.5 C 6.31 g/m*3 4.5 C 0 km/h
180 24-11-2021 11:00:00 5.125 C 6.51 g/m*3 5.13 C 0 km/h
181 24-11-2021 12:00:00 5.69167 C 6.58 g/m*3 5.69 C 0 km/h
182 24-11-2021 13:00:00 6.40833 C 6.52 g/m*3 6.41 C 2.01667 km/h
183 24-11-2021 14:00:00 6.80833 C 6.21 g/m*3 6.81 C 3.2 km/h
184 24-11-2021 15:00:00 6.7 C 6.09 g/m*3 6.7 C 3.06667 km/h
185 24-11-2021 16:00:00 6.00833 C 6.06 g/m*3 6.01 C 0 km/h
186 24-11-2021 17:00:00 3.78333 C 5.46 g/m*3 3.78 C 1.6 km/h
187 24-11-2021 18:00:00 2.31667 C 5.14 g/m*3 2.32 C 0.93333 km/h
188 24-11-2021 19:00:00 1.98333 C 5.13 g/m*3 1.98 C 0 km/h
189 24-11-2021 20:00:00 0.4 C 4.61 g/m*3 0.4 C 0 km/h
190 24-11-2021 21:00:00 -0.28333 C 4.47 g/m*3 -0.28 C 0 km/h
191 24-11-2021 22:00:00 0.03333 C 4.61 g/m*3 0.03 C 0 km/h
192 24-11-2021 23:00:00 1.05833 C 5 g/m*3 1.06 C 0 km/h
193 25-11-2021 00:00:00 1.45 C 5.13 g/m*3 1.45 C 0.13333 km/h
194 25-11-2021 01:00:00 1.675 C 5.22 g/m*3 1.68 C 0 km/h
195 25-11-2021 02:00:00 1.8 C 5.26 g/m*3 1.8 C 0 km/h
196 25-11-2021 03:00:00 1.89167 C 5.3 g/m*3 1.89 C 0 km/h
197 25-11-2021 04:00:00 2.04167 C 5.35 g/m*3 2.04 C 0 km/h
198 25-11-2021 05:00:00 2.175 C 5.4 g/m*3 2.17 C 0 km/h
199 25-11-2021 06:00:00 2.20833 C 5.41 g/m*3 2.21 C 0 km/h
200 25-11-2021 07:00:00 2.26667 C 5.43 g/m*3 2.27 C 0 km/h
Sensor: Nr:Datum:Temp:Abs-Feuchte:Windchill:Wind:
Aussen-T/F 201 25-11-2021 08:00:00 2.28333 C 5.44 g/m*3 2.28 C 0 km/h
202 25-11-2021 09:00:00 2.625 C 5.57 g/m*3 2.63 C 0 km/h
203 25-11-2021 10:00:00 3 C 5.7 g/m*3 3 C 0 km/h
204 25-11-2021 11:00:00 3.55 C 5.83 g/m*3 3.55 C 0.53333 km/h
205 25-11-2021 12:00:00 4.38333 C 5.88 g/m*3 4.38 C 0.13333 km/h
206 25-11-2021 13:00:00 4.95833 C 5.71 g/m*3 4.96 C 0 km/h
207 25-11-2021 14:00:00 4.94167 C 5.66 g/m*3 4.94 C 0 km/h
208 25-11-2021 15:00:00 4.6 C 5.74 g/m*3 4.6 C 0 km/h
209 25-11-2021 16:00:00 4.36667 C 5.69 g/m*3 4.37 C 0 km/h
210 25-11-2021 17:00:00 3.93333 C 5.64 g/m*3 3.93 C 0 km/h
211 25-11-2021 18:00:00 3.875 C 5.67 g/m*3 3.88 C 0 km/h
212 25-11-2021 19:00:00 3.98333 C 5.7 g/m*3 3.98 C 0 km/h
213 25-11-2021 20:00:00 4.10833 C 5.7 g/m*3 4.11 C 0.13333 km/h
214 25-11-2021 21:00:00 4.06667 C 5.68 g/m*3 4.07 C 0 km/h
215 25-11-2021 22:00:00 3.7 C 5.63 g/m*3 3.7 C 0.26667 km/h
216 25-11-2021 23:00:00 3.86667 C 5.63 g/m*3 3.87 C 2.13333 km/h
217 26-11-2021 00:00:00 3.7 C 5.64 g/m*3 3.7 C 0 km/h
218 26-11-2021 01:00:00 3.625 C 5.74 g/m*3 3.63 C 0.26667 km/h
219 26-11-2021 02:00:00 3.13333 C 5.62 g/m*3 3.13 C 0.53333 km/h
220 26-11-2021 03:00:00 2.98333 C 5.63 g/m*3 2.98 C 1.2 km/h
221 26-11-2021 04:00:00 2.80833 C 5.58 g/m*3 2.81 C 0.53333 km/h
222 26-11-2021 05:00:00 2.725 C 5.55 g/m*3 2.73 C 0.66667 km/h
223 26-11-2021 06:00:00 2.925 C 5.62 g/m*3 2.93 C 0.93333 km/h
224 26-11-2021 07:00:00 2.56667 C 5.48 g/m*3 2.57 C 2.26667 km/h
225 26-11-2021 08:00:00 2.98333 C 5.66 g/m*3 1.6 C 5.49167 km/h
Sensor: Nr:Datum:Temp:Abs-Feuchte:Windchill:Wind:
Aussen-T/F 226 26-11-2021 09:00:00 3.75833 C 5.87 g/m*3 2.24 C 6.15 km/h
227 26-11-2021 10:00:00 4.53333 C 6.01 g/m*3 1.94 C 10.75833 km/h
228 26-11-2021 11:00:00 4.85 C 6.01 g/m*3 2.13 C 11.7 km/h
229 26-11-2021 12:00:00 4.99167 C 6 g/m*3 2.16 C 12.5 km/h
230 26-11-2021 13:00:00 5.25 C 5.96 g/m*3 3.09 C 9.41667 km/h
231 26-11-2021 14:00:00 5.33333 C 5.8 g/m*3 2.84 C 11.03333 km/h
232 26-11-2021 15:00:00 5.075 C 5.71 g/m*3 3.04 C 8.74167 km/h
233 26-11-2021 16:00:00 4.69167 C 5.63 g/m*3 2.65 C 8.46667 km/h
234 26-11-2021 17:00:00 4.63333 C 5.5 g/m*3 3.08 C 6.7 km/h
235 26-11-2021 18:00:00 4.5 C 5.44 g/m*3 2.87 C 6.86667 km/h
236 26-11-2021 19:00:00 4.43333 C 5.49 g/m*3 4.43 C 4.825 km/h
237 26-11-2021 20:00:00 4.38333 C 5.65 g/m*3 3.19 C 5.49167 km/h
238 26-11-2021 21:00:00 4.28333 C 5.75 g/m*3 4.28 C 4.55833 km/h
239 26-11-2021 22:00:00 3.66667 C 5.65 g/m*3 3.67 C 4.14167 km/h
240 26-11-2021 23:00:00 3.46667 C 5.66 g/m*3 3.47 C 1.06667 km/h
241 27-11-2021 00:00:00 3.35833 C 5.66 g/m*3 3.36 C 0.4 km/h
242 27-11-2021 01:00:00 3.35 C 5.66 g/m*3 3.35 C 0.66667 km/h
243 27-11-2021 02:00:00 3.45 C 5.7 g/m*3 3.45 C 1.33333 km/h
244 27-11-2021 03:00:00 3.61667 C 5.76 g/m*3 3.62 C 2.80833 km/h
245 27-11-2021 04:00:00 3.675 C 5.77 g/m*3 2.29 C 5.75 km/h
246 27-11-2021 05:00:00 3.09167 C 5.55 g/m*3 1.83 C 5.20833 km/h
247 27-11-2021 06:00:00 3.41667 C 5.71 g/m*3 1.8 C 6.29167 km/h
248 27-11-2021 07:00:00 3.55833 C 5.77 g/m*3 2.01 C 6.15833 km/h
249 27-11-2021 08:00:00 3.30833 C 5.71 g/m*3 1.87 C 5.74167 km/h
250 27-11-2021 09:00:00 2.825 C 5.52 g/m*3 2.83 C 4.13333 km/h
Sensor: Nr:Datum:Temp:Abs-Feuchte:Windchill:Wind:
Aussen-T/F 251 27-11-2021 10:00:00 2.71667 C 5.51 g/m*3 2.72 C 4.29167 km/h
252 27-11-2021 11:00:00 3.51667 C 5.68 g/m*3 0.84 C 10.2 km/h
253 27-11-2021 12:00:00 4.425 C 5.61 g/m*3 1.4 C 12.89167 km/h
254 27-11-2021 13:00:00 4.525 C 5.43 g/m*3 2.1 C 9.95833 km/h
255 27-11-2021 14:00:00 4.5 C 5.3 g/m*3 2.64 C 7.66667 km/h
256 27-11-2021 15:00:00 4.125 C 5.36 g/m*3 4.13 C 3.86667 km/h
257 27-11-2021 16:00:00 2.8 C 5.06 g/m*3 2.8 C 1.86667 km/h
258 27-11-2021 17:00:00 0.83333 C 4.68 g/m*3 0.83 C 1.46667 km/h
259 27-11-2021 18:00:00 0.24167 C 4.59 g/m*3 0.24 C 0.8 km/h
260 27-11-2021 19:00:00 0.025 C 4.56 g/m*3 0.03 C 0 km/h
261 27-11-2021 20:00:00 0.15 C 4.63 g/m*3 0.15 C 0 km/h
262 27-11-2021 21:00:00 0 C 4.61 g/m*3 0 C 0 km/h
263 27-11-2021 22:00:00 0.43333 C 4.75 g/m*3 0.43 C 0 km/h
264 27-11-2021 23:00:00 0.3 C 4.73 g/m*3 0.3 C 0 km/h
265 28-11-2021 00:00:00 0.44167 C 4.79 g/m*3 0.44 C 0 km/h
266 28-11-2021 01:00:00 0.825 C 4.92 g/m*3 0.83 C 0 km/h
267 28-11-2021 02:00:00 1.10833 C 5.02 g/m*3 1.11 C 0 km/h
268 28-11-2021 03:00:00 1.13333 C 5.03 g/m*3 1.13 C 0 km/h
269 28-11-2021 04:00:00 1.175 C 5.04 g/m*3 1.18 C 0 km/h
270 28-11-2021 05:00:00 1.325 C 5.09 g/m*3 1.33 C 0 km/h
271 28-11-2021 06:00:00 1.65833 C 5.22 g/m*3 1.66 C 0 km/h
272 28-11-2021 07:00:00 1.89167 C 5.33 g/m*3 1.89 C 0 km/h
273 28-11-2021 08:00:00 2.16667 C 5.43 g/m*3 2.17 C 0 km/h
274 28-11-2021 09:00:00 2.68333 C 5.63 g/m*3 2.68 C 0 km/h
275 28-11-2021 10:00:00 3.25 C 5.86 g/m*3 3.25 C 0.26667 km/h
Sensor: Nr:Datum:Temp:Abs-Feuchte:Windchill:Wind:
Aussen-T/F 276 28-11-2021 11:00:00 3.75833 C 6.02 g/m*3 3.76 C 0.4 km/h
277 28-11-2021 12:00:00 4.26667 C 6.11 g/m*3 4.27 C 0.53333 km/h
278 28-11-2021 13:00:00 3.64167 C 5.78 g/m*3 3.64 C 3.35833 km/h
279 28-11-2021 14:00:00 3.15 C 5.66 g/m*3 3.15 C 0.26667 km/h
280 28-11-2021 15:00:00 3.11667 C 5.69 g/m*3 3.12 C 0.26667 km/h
281 28-11-2021 16:00:00 3.15833 C 5.71 g/m*3 3.16 C 1.86667 km/h
282 28-11-2021 17:00:00 2.975 C 5.64 g/m*3 2.98 C 2.26667 km/h
283 28-11-2021 18:00:00 2.78333 C 5.57 g/m*3 2.78 C 1.6 km/h
284 28-11-2021 19:00:00 2.58333 C 5.54 g/m*3 2.58 C 0.93333 km/h
285 28-11-2021 20:00:00 2.30833 C 5.45 g/m*3 2.31 C 1.46667 km/h
286 28-11-2021 21:00:00 2.36667 C 5.47 g/m*3 2.37 C 0 km/h
287 28-11-2021 22:00:00 2.64167 C 5.57 g/m*3 2.64 C 0.8 km/h
288 28-11-2021 23:00:00 2.49167 C 5.52 g/m*3 2.49 C 2.93333 km/h
289 29-11-2021 00:00:00 2.69167 C 5.59 g/m*3 1.21 C 5.625 km/h
290 29-11-2021 01:00:00 1.95833 C 5.29 g/m*3 1.96 C 2.66667 km/h
291 29-11-2021 02:00:00 1.85833 C 5.28 g/m*3 0.37 C 5.35 km/h
292 29-11-2021 03:00:00 1.54167 C 5.14 g/m*3 1.54 C 4.15833 km/h
293 29-11-2021 04:00:00 0.675 C 4.84 g/m*3 0.68 C 4.275 km/h
294 29-11-2021 05:00:00 0.525 C 4.81 g/m*3 0.53 C 2 km/h
295 29-11-2021 06:00:00 0.8 C 4.91 g/m*3 0.8 C 0 km/h
296 29-11-2021 07:00:00 0.48333 C 4.81 g/m*3 0.48 C 1.46667 km/h
297 29-11-2021 08:00:00 0.61667 C 4.85 g/m*3 -1.05 C 5.35 km/h
298 29-11-2021 09:00:00 1.38333 C 5.09 g/m*3 -0.73 C 6.825 km/h
299 29-11-2021 10:00:00 2.1 C 5.22 g/m*3 -0.48 C 8.75 km/h
300 29-11-2021 11:00:00 3.125 C 5.41 g/m*3 0.07 C 11.56667 km/h
Sensor: Nr:Datum:Temp:Abs-Feuchte:Windchill:Wind:
Aussen-T/F 301 29-11-2021 12:00:00 4.2 C 5.55 g/m*3 0.47 C 16.9 km/h
302 29-11-2021 13:00:00 3.44167 C 5.61 g/m*3 0.4 C 11.83333 km/h
303 29-11-2021 14:00:00 3.30833 C 5.69 g/m*3 1.54 C 6.7 km/h
304 29-11-2021 15:00:00 3.4 C 5.74 g/m*3 2.13 C 5.35 km/h
305 29-11-2021 16:00:00 3.35 C 5.72 g/m*3 3.35 C 3.73333 km/h
306 29-11-2021 17:00:00 3.28333 C 5.7 g/m*3 3.28 C 2.94167 km/h
307 29-11-2021 18:00:00 3.3 C 5.71 g/m*3 3.3 C 4.00833 km/h
308 29-11-2021 19:00:00 3.14167 C 5.64 g/m*3 3.14 C 2.13333 km/h
309 29-11-2021 20:00:00 2.91667 C 5.58 g/m*3 2.92 C 2.54167 km/h
310 29-11-2021 21:00:00 3.25 C 5.71 g/m*3 1.85 C 5.625 km/h
311 29-11-2021 22:00:00 3.3 C 5.76 g/m*3 1.8 C 5.90833 km/h
312 29-11-2021 23:00:00 3.55 C 5.82 g/m*3 0.79 C 10.625 km/h
313 30-11-2021 00:00:00 3.95833 C 5.75 g/m*3 0.15 C 17.03333 km/h
314 30-11-2021 01:00:00 4.23333 C 5.65 g/m*3 0.46 C 17.3 km/h
315 30-11-2021 02:00:00 3.91667 C 5.46 g/m*3 -0.21 C 19.30833 km/h
316 30-11-2021 03:00:00 3.89167 C 5.42 g/m*3 0.13 C 16.63333 km/h
317 30-11-2021 04:00:00 3.83333 C 5.44 g/m*3 0.48 C 13.96667 km/h
318 30-11-2021 05:00:00 3.78333 C 5.62 g/m*3 -0.94 C 23.99167 km/h
319 30-11-2021 06:00:00 3.425 C 5.63 g/m*3 -1.32 C 23.31667 km/h
320 30-11-2021 07:00:00 3.50833 C 5.7 g/m*3 -1.44 C 25.34167 km/h
321 30-11-2021 08:00:00 4.05833 C 5.82 g/m*3 -0.66 C 24.66667 km/h
322 30-11-2021 09:00:00 4.475 C 5.97 g/m*3 -0.52 C 28.69167 km/h
323 30-11-2021 10:00:00 5.13333 C 6.18 g/m*3 0.61 C 25.74167 km/h
324 30-11-2021 11:00:00 5.43333 C 6.47 g/m*3 1.2 C 23.71667 km/h
325 30-11-2021 12:00:00 5.73333 C 6.63 g/m*3 1.55 C 24.10833 km/h
Sensor: Nr:Datum:Temp:Abs-Feuchte:Windchill:Wind:
Aussen-T/F 326 30-11-2021 13:00:00 6.15833 C 6.78 g/m*3 2.08 C 24.25 km/h
327 30-11-2021 14:00:00 6.24167 C 6.9 g/m*3 2.14 C 24.65833 km/h
328 30-11-2021 15:00:00 6.29167 C 6.95 g/m*3 2.64 C 20.5 km/h
329 30-11-2021 16:00:00 6.29167 C 7.02 g/m*3 2.48 C 21.96667 km/h
330 30-11-2021 17:00:00 6.44167 C 7.08 g/m*3 2.83 C 20.5 km/h
331 30-11-2021 18:00:00 6.64167 C 7.17 g/m*3 3.31 C 18.5 km/h
332 30-11-2021 19:00:00 6.84167 C 7.27 g/m*3 3.76 C 16.9 km/h
333 30-11-2021 20:00:00 7.15 C 7.34 g/m*3 4.06 C 17.56667 km/h
334 30-11-2021 21:00:00 7.41667 C 7.38 g/m*3 4.35 C 17.975 km/h
335 30-11-2021 22:00:00 7.74167 C 7.41 g/m*3 4.19 C 23.31667 km/h
336 30-11-2021 23:00:00 7.80833 C 7.4 g/m*3 4.13 C 24.925 km/h

Maximal/Minimal-Werte vom 17.11.2021 - 30.11.2021

Sensor Min Max Avg
Temp
(Aussen-T/F)
-2.3 °C
23-11-2021  04:10:00
11.1 °C
20-11-2021  15:25:00
4.68 °C
Abs-Feuchte
(Aussen-T/F)
3.98 g/m*3
23-11-2021  03:00:00
8.78 g/m*3
19-11-2021  13:00:00
6.26 g/m*3
Windchill
(Aussen-T/F)
-2.19 C
23-11-2021  04:00:00
10.95 C
20-11-2021  14:00:00
3.99 C

Die Daten stammen von einer Davis Vantage Pro 2 Wetter-Station und werden unter Linux mit der Software wview2wettercgi und aufbereitet. Alle Angaben erfolgen ohne Gewähr für ihre Vollständigkeit oder Richtigkeit.
Kontakt: Rainer Krienke krienke@uni-koblenz.de . Meine Webseiten an der Uni Koblenz oder privat.
Version: $Revision: 0.78 $